アムステルダム/スキポール の空港の天気 - METARとTAF

スキポール空港(アムステルダム) ( EHAM / AMS ) - オランダ アムステルダム
飛行場実況気象(Metar)
観測時間11/22 13:55 CET (11/22 12:55 UTC)
風向・風速南 7m/s
視程10km以上
天気現象
なし
気温13℃
湿度77%
気圧1003hPa
METAREHAM 221255Z 18013KT CAVOK 13/09 Q1003 NOSIG
過去の天気等 Google飛行場航空写真 Wunderground天気予報

過去48時間のMETAR

飛行場予報(TAF)
発表時間: 11/22 11:34 CET (11/22 10:34 UTC)
予報対象時間: 22日13時 CET ~ 23日19時 CET
風向・風速南 9m/s 瞬間風速 14m/s
視程10km以上
なし
23日6時 CET ~ 23日9時 CET に徐々に
風向・風速南南西 11m/s 瞬間風速 17m/s
全天の4割程度の雲 雲底高度 550m
全天の8割程度の雲 雲底高度 1,070m
23日9時 CET ~ 23日14時 CET に一時的に
風向・風速南西 13m/s 瞬間風速 20m/s
視程6,000m
天気現象しゅう雨 雨
全天の4割程度の積乱雲 雲底高度 460m
全天の8割程度の雲 雲底高度 550m
23日12時 CET ~ 23日14時 CET に徐々に
風向・風速西南西 10m/s 瞬間風速 15m/s
全天の4割程度の雲 雲底高度 670m
23日15時 CET ~ 23日18時 CET に徐々に
風向・風速南西 6m/s
TAF EHAM 221034Z 2212/2318 19017G27KT CAVOK
BECMG 2305/2308 21022G33KT SCT018 BKN035
TEMPO 2308/2313 22025G38KT 6000 SHRA RA SCT015CB BKN018
BECMG 2311/2313 24020G30KT SCT022
BECMG 2314/2317 23012KT